createdAt,value
2019-01-13T00:47:57.366Z,4.10
2019-01-13T00:50:27.881Z,4.60
2019-01-13T00:52:58.471Z,4.50
2019-01-13T00:55:28.929Z,4.90
2019-01-13T00:57:59.427Z,4.47
2019-01-13T01:00:29.884Z,5.10
2019-01-13T01:03:00.503Z,5.00
2019-01-13T01:05:31.158Z,5.23
2019-01-13T01:08:01.841Z,5.73
2019-01-13T01:10:32.315Z,5.10
2019-01-13T01:13:02.817Z,5.03
2019-01-13T01:15:33.409Z,5.10
2019-01-13T01:18:03.976Z,5.83
2019-01-13T01:20:34.508Z,5.23
2019-01-13T01:23:05.325Z,4.60
2019-01-13T01:25:35.833Z,5.00
2019-01-13T01:28:06.502Z,4.90
2019-01-13T01:30:37.082Z,5.27
2019-01-13T01:33:07.558Z,4.77
2019-01-13T01:35:37.991Z,4.70
2019-01-13T01:38:08.480Z,5.17
2019-01-13T01:40:39.013Z,4.87
2019-01-13T01:43:09.455Z,5.27
2019-01-13T01:45:39.941Z,5.43
2019-01-13T01:48:10.377Z,5.90
2019-01-13T01:50:40.806Z,5.37
2019-01-13T01:53:11.365Z,5.37
2019-01-13T01:55:41.847Z,5.97
2019-01-13T01:58:12.292Z,5.43
2019-01-13T02:00:42.893Z,6.10
2019-01-13T02:03:13.390Z,5.77
2019-01-13T02:05:43.917Z,6.07
2019-01-13T02:08:14.374Z,5.03
2019-01-13T02:10:44.873Z,5.93
2019-01-13T02:13:15.356Z,5.70
2019-01-13T02:15:45.779Z,5.90
2019-01-13T02:18:16.252Z,5.17
2019-01-13T02:20:46.705Z,5.53
2019-01-13T02:23:17.157Z,5.37
2019-01-13T02:25:47.645Z,5.50
2019-01-13T02:28:18.087Z,5.97
2019-01-13T02:30:49.495Z,4.67
2019-01-13T02:33:20.219Z,5.37
2019-01-13T02:35:50.680Z,6.10
2019-01-13T02:38:21.149Z,5.60
2019-01-13T02:40:51.699Z,4.90
2019-01-13T02:43:22.159Z,4.63
2019-01-13T02:45:52.809Z,5.50
2019-01-13T02:48:23.237Z,4.77
2019-01-13T02:50:53.858Z,5.47
2019-01-13T02:53:24.265Z,5.60
2019-01-13T02:55:54.740Z,6.00
2019-01-13T02:58:25.179Z,5.50
2019-01-13T03:00:57.259Z,5.97
2019-01-13T03:03:31.056Z,6.47
2019-01-13T03:06:01.530Z,6.63
2019-01-13T03:08:32.013Z,5.93
2019-01-13T03:11:02.493Z,5.60
2019-01-13T03:13:32.943Z,6.00
2019-01-13T03:16:03.412Z,6.47
2019-01-13T03:18:34.179Z,5.93
2019-01-13T03:21:04.690Z,5.97
2019-01-13T03:23:35.171Z,6.37
2019-01-13T03:26:06.774Z,7.23
2019-01-13T03:28:37.255Z,6.83
2019-01-13T03:31:11.800Z,6.10
2019-01-13T03:33:39.959Z,6.47
2019-01-13T03:36:10.500Z,6.50
2019-01-13T03:38:41.018Z,6.17
2019-01-13T03:41:11.508Z,6.17
2019-01-13T03:43:42.033Z,5.13
2019-01-13T03:46:12.514Z,5.97
2019-01-13T03:48:42.975Z,5.63
2019-01-13T03:51:13.449Z,5.40
2019-01-13T03:53:43.918Z,5.43
2019-01-13T03:56:14.363Z,4.73
2019-01-13T03:58:44.842Z,5.43
2019-01-13T04:01:18.619Z,5.87
2019-01-13T04:03:49.921Z,5.30
2019-01-13T04:06:20.364Z,4.77
2019-01-13T04:08:51.396Z,5.20
2019-01-13T04:11:21.850Z,5.40
2019-01-13T04:13:52.388Z,5.17
2019-01-13T04:16:23.075Z,5.37
2019-01-13T04:18:53.571Z,5.37
2019-01-13T04:21:24.028Z,5.23
2019-01-13T04:23:54.536Z,5.23
2019-01-13T04:26:25.178Z,6.27
2019-01-13T04:28:55.841Z,5.62
2019-01-13T04:31:27.116Z,6.27
2019-01-13T04:33:57.686Z,6.23
2019-01-13T04:36:28.216Z,6.47
2019-01-13T04:38:58.763Z,6.83
2019-01-13T04:41:29.578Z,6.50
2019-01-13T04:44:00.143Z,6.73
2019-01-13T04:46:30.670Z,6.77
2019-01-13T04:49:01.275Z,6.77
2019-01-13T04:51:31.850Z,6.30
2019-01-13T04:54:02.416Z,6.87
2019-01-13T04:56:33.065Z,7.10
2019-01-13T04:59:03.658Z,7.40
2019-01-13T05:01:36.545Z,7.57
2019-01-13T05:04:06.676Z,7.53
2019-01-13T05:06:37.142Z,7.50
2019-01-13T05:09:09.792Z,8.20
2019-01-13T05:11:40.377Z,7.23
2019-01-13T05:14:10.882Z,7.20
2019-01-13T05:16:41.465Z,7.10
2019-01-13T05:19:12.102Z,7.80
2019-01-13T05:21:42.685Z,7.13
2019-01-13T05:24:13.303Z,8.10
2019-01-13T05:26:43.821Z,7.60
2019-01-13T05:29:14.438Z,7.27
2019-01-13T05:31:44.956Z,9.13
2019-01-13T05:34:16.438Z,8.00
2019-01-13T05:36:46.953Z,7.47
2019-01-13T05:39:17.472Z,6.20
2019-01-13T05:41:47.993Z,5.70
2019-01-13T05:44:18.496Z,6.67
2019-01-13T05:46:49.208Z,6.10
2019-01-13T05:49:19.666Z,7.07
2019-01-13T05:51:50.365Z,6.57
2019-01-13T05:54:20.951Z,6.87
2019-01-13T05:56:51.495Z,6.60
2019-01-13T05:59:22.037Z,6.53
2019-01-13T06:01:52.559Z,6.50
2019-01-13T06:04:23.067Z,5.63
2019-01-13T06:06:53.705Z,6.17
2019-01-13T06:09:24.273Z,6.57
2019-01-13T06:11:54.864Z,6.20
2019-01-13T06:14:25.495Z,6.20
2019-01-13T06:16:56.060Z,5.60
2019-01-13T06:19:26.530Z,5.37
2019-01-13T06:21:57.163Z,5.30
2019-01-13T06:24:27.765Z,5.30
2019-01-13T06:26:58.430Z,5.20
2019-01-13T06:29:28.938Z,5.30
2019-01-13T06:31:59.452Z,5.97
2019-01-13T06:34:31.186Z,5.13
2019-01-13T06:37:01.781Z,5.30
2019-01-13T06:39:32.299Z,5.27
2019-01-13T06:42:02.804Z,4.70
2019-01-13T06:44:33.388Z,4.70
2019-01-13T06:47:04.032Z,4.63
2019-01-13T06:49:34.637Z,4.60
2019-01-13T06:52:05.190Z,4.60
2019-01-13T06:54:35.862Z,5.07
2019-01-13T06:57:06.406Z,4.70
2019-01-13T06:59:36.958Z,4.10
2019-01-13T07:02:07.704Z,3.87
2019-01-13T07:04:38.255Z,3.77
2019-01-13T07:07:08.719Z,3.83
2019-01-13T07:09:39.247Z,3.90
2019-01-13T07:12:10.233Z,3.97
2019-01-13T07:14:40.991Z,3.93
2019-01-13T07:17:11.551Z,4.03
2019-01-13T07:19:42.055Z,3.57
2019-01-13T07:22:12.591Z,3.23
2019-01-13T07:24:43.226Z,3.73
2019-01-13T07:27:13.762Z,3.47
2019-01-13T07:29:44.332Z,3.77
2019-01-13T07:32:14.929Z,3.60
2019-01-13T07:34:45.631Z,3.30
2019-01-13T07:37:16.256Z,3.60
2019-01-13T07:39:46.737Z,3.20
2019-01-13T07:42:17.476Z,3.40
2019-01-13T07:44:47.956Z,2.93
2019-01-13T07:47:18.493Z,2.97
2019-01-13T07:49:49.077Z,3.23
2019-01-13T07:52:19.888Z,3.63
2019-01-13T07:54:51.597Z,3.63
2019-01-13T07:57:22.394Z,3.70
2019-01-13T07:59:52.947Z,2.73
2019-01-13T08:02:23.595Z,3.60
2019-01-13T08:04:54.116Z,3.27
2019-01-13T08:07:24.585Z,3.37
2019-01-13T08:09:55.065Z,3.07
2019-01-13T08:12:25.526Z,3.20
2019-01-13T08:14:56.030Z,3.23
2019-01-13T08:17:26.686Z,2.77
2019-01-13T08:19:57.201Z,2.97
2019-01-13T08:22:27.828Z,3.20
2019-01-13T08:24:58.463Z,3.00
2019-01-13T08:27:29.004Z,3.40
2019-01-13T08:30:00.413Z,2.90
2019-01-13T08:32:30.865Z,3.07
2019-01-13T08:35:01.531Z,3.33
2019-01-13T08:37:32.069Z,2.93
2019-01-13T08:40:02.524Z,2.90
2019-01-13T08:42:33.146Z,2.83
2019-01-13T08:45:34.739Z,2.67
2019-01-13T08:48:05.164Z,2.97
2019-01-13T08:50:35.941Z,2.50
2019-01-13T08:53:06.384Z,2.47
2019-01-13T08:55:38.954Z,2.37
2019-01-13T08:58:09.504Z,2.27
2019-01-13T09:00:40.025Z,2.37
2019-01-13T09:03:10.789Z,2.13
2019-01-13T09:05:41.234Z,2.10
2019-01-13T09:08:11.810Z,2.10
2019-01-13T09:10:42.280Z,2.70
2019-01-13T09:13:12.789Z,2.20
2019-01-13T09:15:49.561Z,1.97
2019-01-13T09:18:20.208Z,2.17
2019-01-13T09:20:51.201Z,1.70
2019-01-13T09:23:23.204Z,2.20
2019-01-13T09:26:00.517Z,2.37
2019-01-13T09:28:31.145Z,2.20
2019-01-13T09:31:01.746Z,2.23
2019-01-13T09:33:32.275Z,2.30
2019-01-13T09:36:02.787Z,2.50
2019-01-13T09:38:33.243Z,2.10
2019-01-13T09:41:03.823Z,2.13
2019-01-13T09:43:34.349Z,2.13
2019-01-13T09:46:05.359Z,2.20
2019-01-13T09:48:35.901Z,2.30
2019-01-13T09:51:06.463Z,2.20
2019-01-13T09:53:36.987Z,2.17
2019-01-13T09:56:07.541Z,2.50
2019-01-13T09:58:39.645Z,2.13
2019-01-13T10:01:10.244Z,2.20
2019-01-13T10:03:40.874Z,2.30
2019-01-13T10:06:11.646Z,2.50
2019-01-13T10:08:42.222Z,2.73
2019-01-13T10:11:15.708Z,2.80
2019-01-13T10:13:46.218Z,2.30
2019-01-13T10:16:16.699Z,2.33
2019-01-13T10:18:47.317Z,2.10
2019-01-13T10:21:17.825Z,2.13
2019-01-13T10:23:48.372Z,2.10
2019-01-13T10:26:18.911Z,2.50
2019-01-13T10:28:49.610Z,2.10
2019-01-13T10:31:20.197Z,2.30
2019-01-13T10:33:59.246Z,2.50
2019-01-13T10:36:29.729Z,2.23
2019-01-13T10:39:00.256Z,2.10
2019-01-13T10:41:30.998Z,2.23
2019-01-13T10:44:02.563Z,2.20
2019-01-13T10:46:35.652Z,2.20
2019-01-13T10:49:06.340Z,1.67
2019-01-13T10:51:39.196Z,1.77
2019-01-13T10:54:09.834Z,2.00
2019-01-13T10:56:40.545Z,1.80
2019-01-13T10:59:11.160Z,2.13
2019-01-13T11:01:42.030Z,2.10
2019-01-13T11:04:12.646Z,2.50
2019-01-13T11:06:47.161Z,1.80
2019-01-13T11:09:17.816Z,1.97
2019-01-13T11:11:48.408Z,1.93
2019-01-13T11:14:20.030Z,1.70
2019-01-13T11:16:53.014Z,1.77
2019-01-13T11:19:23.616Z,1.70
2019-01-13T11:21:54.177Z,1.53
2019-01-13T11:24:24.788Z,1.80
2019-01-13T11:26:56.662Z,1.83
2019-01-13T11:29:32.703Z,1.83
2019-01-13T11:31:59.443Z,1.70
2019-01-13T11:34:30.030Z,1.63
2019-01-13T11:37:18.871Z,1.90
2019-01-13T11:40:26.682Z,1.60
2019-01-13T11:44:55.311Z,1.80
2019-01-13T11:47:53.447Z,1.50
2019-01-13T11:50:25.180Z,1.37
2019-01-13T11:54:11.466Z,1.50
2019-01-13T11:56:57.243Z,1.30
2019-01-13T11:59:35.563Z,1.13
2019-01-13T12:02:17.967Z,1.50
2019-01-13T12:10:10.888Z,1.60
2019-01-13T12:12:54.416Z,1.60
2019-01-13T12:16:15.849Z,1.47
2019-01-13T12:22:56.256Z,1.53
2019-01-13T12:25:25.808Z,1.27
2019-01-13T12:27:58.804Z,1.50
2019-01-13T12:30:45.755Z,1.27
2019-01-13T12:33:24.336Z,1.20
2019-01-13T12:35:53.528Z,1.43
2019-01-13T12:38:25.524Z,1.37
2019-01-13T12:41:00.171Z,1.37
2019-01-13T12:43:31.303Z,1.50
2019-01-13T12:46:04.964Z,1.53
2019-01-13T12:48:41.428Z,1.10
2019-01-13T12:51:14.495Z,1.40
2019-01-13T12:53:54.188Z,1.20
2019-01-13T12:56:38.149Z,1.40
2019-01-13T12:59:57.563Z,1.40
2019-01-13T13:02:28.799Z,1.33
2019-01-13T13:08:42.625Z,2.07
2019-01-13T13:11:33.760Z,1.60
2019-01-13T13:14:31.299Z,1.43
2019-01-13T13:17:11.159Z,1.20
2019-01-13T13:19:45.101Z,1.47
2019-01-13T13:25:32.994Z,1.63
2019-01-13T13:28:06.220Z,1.80
2019-01-13T13:30:38.207Z,1.90
2019-01-13T13:33:09.355Z,1.50
2019-01-13T13:35:40.453Z,1.70
2019-01-13T13:38:15.744Z,1.40
2019-01-13T13:40:48.539Z,1.70
2019-01-13T13:43:38.429Z,1.17
2019-01-13T13:46:13.572Z,1.40
2019-01-13T13:48:49.316Z,1.63
2019-01-13T13:51:32.996Z,1.70
2019-01-13T13:54:11.434Z,1.77
2019-01-13T13:56:42.197Z,1.80
2019-01-13T13:59:25.812Z,1.60
2019-01-13T14:02:00.053Z,1.50
2019-01-13T14:04:32.566Z,1.87
2019-01-13T14:07:03.563Z,1.80
2019-01-13T14:09:40.561Z,1.87
2019-01-13T14:12:23.251Z,1.43
2019-01-13T14:15:00.231Z,1.87
2019-01-13T14:17:42.810Z,1.47
2019-01-13T14:20:18.793Z,1.53
2019-01-13T14:22:59.561Z,1.70
2019-01-13T14:25:42.872Z,1.53
2019-01-13T14:28:14.117Z,1.43
2019-01-13T14:30:53.230Z,1.80
2019-01-13T14:33:29.186Z,1.40
2019-01-13T14:36:09.510Z,1.53
2019-01-13T14:38:43.660Z,1.53
2019-01-13T14:41:18.860Z,1.67
2019-01-13T14:44:07.887Z,1.70
2019-01-13T14:46:43.139Z,1.60
2019-01-13T14:49:21.236Z,1.60
2019-01-13T14:52:12.213Z,1.47
2019-01-13T14:54:44.916Z,1.33
2019-01-13T14:57:15.821Z,1.60
2019-01-13T14:59:49.854Z,1.40
2019-01-13T15:02:23.068Z,2.00
2019-01-13T15:05:01.465Z,1.63
2019-01-13T15:07:34.691Z,1.20
2019-01-13T15:10:09.605Z,1.67
2019-01-13T15:12:40.313Z,1.80
2019-01-13T15:15:12.687Z,1.70
2019-01-13T15:17:45.588Z,2.40
2019-01-13T15:20:21.791Z,1.90
2019-01-13T15:22:53.467Z,2.20
2019-01-13T15:25:29.956Z,2.17
2019-01-13T15:28:00.723Z,2.30
2019-01-13T15:30:35.543Z,2.30
2019-01-13T15:33:08.300Z,2.63
2019-01-13T15:35:40.075Z,2.30
2019-01-13T15:38:11.583Z,2.53
2019-01-13T15:40:59.423Z,2.77
2019-01-13T15:43:31.057Z,3.23
2019-01-13T15:46:01.740Z,2.60
2019-01-13T15:48:32.409Z,2.30
2019-01-13T15:51:10.058Z,2.63
2019-01-13T15:54:27.745Z,2.40
2019-01-13T15:57:00.475Z,2.50
2019-01-13T15:59:33.078Z,2.70
2019-01-13T16:02:05.578Z,2.77
2019-01-13T16:04:36.472Z,2.20
2019-01-13T16:07:10.466Z,2.27
2019-01-13T16:09:42.418Z,2.60
2019-01-13T16:12:19.658Z,2.73
2019-01-13T16:14:55.659Z,3.47
2019-01-13T16:17:31.485Z,3.23
2019-01-13T16:20:01.964Z,3.07
2019-01-13T16:22:33.466Z,2.67
2019-01-13T16:25:04.428Z,2.43
2019-01-13T16:27:34.957Z,2.37
2019-01-13T16:30:08.403Z,2.90
2019-01-13T16:32:48.499Z,2.40
2019-01-13T16:35:19.099Z,2.47
2019-01-13T16:37:49.782Z,2.47
2019-01-13T16:40:22.696Z,2.83
2019-01-13T16:42:53.160Z,2.47
2019-01-13T16:45:23.741Z,2.97
2019-01-13T16:47:55.281Z,2.60
2019-01-13T16:50:27.448Z,2.93
2019-01-13T16:52:59.126Z,2.23
2019-01-13T16:55:30.010Z,2.30
2019-01-13T16:58:00.539Z,2.73
2019-01-13T17:00:32.806Z,2.57
2019-01-13T17:03:06.210Z,2.10
2019-01-13T17:05:36.823Z,1.93
2019-01-13T17:08:36.248Z,1.60
2019-01-13T17:11:42.300Z,1.87
2019-01-13T17:14:13.032Z,1.27
2019-01-13T17:17:09.346Z,1.17
2019-01-13T17:19:59.545Z,0.87
2019-01-13T17:26:06.340Z,1.10
2019-01-13T17:28:38.131Z,1.00
2019-01-13T17:31:11.629Z,1.27
2019-01-13T17:33:42.352Z,1.03
2019-01-13T17:36:13.293Z,1.50
2019-01-13T17:38:44.149Z,1.37
2019-01-13T17:41:14.925Z,1.57
2019-01-13T17:43:45.675Z,1.80
2019-01-13T17:46:16.637Z,1.20
2019-01-13T17:48:47.417Z,1.33
2019-01-13T17:51:20.245Z,1.37
2019-01-13T17:53:57.438Z,1.37
2019-01-13T17:56:28.183Z,1.10
2019-01-13T17:59:31.053Z,1.63
2019-01-13T18:03:00.688Z,1.60
2019-01-13T18:05:33.640Z,1.27
2019-01-13T18:08:23.006Z,1.63
2019-01-13T18:10:53.867Z,1.30
2019-01-13T18:13:24.445Z,1.30
2019-01-13T18:15:54.878Z,1.13
2019-01-13T18:18:25.380Z,0.97
2019-01-13T18:20:55.967Z,1.20
2019-01-13T18:23:26.545Z,1.47
2019-01-13T18:25:57.195Z,1.00
2019-01-13T18:28:27.740Z,1.30
2019-01-13T18:30:58.202Z,1.00
2019-01-13T18:33:29.868Z,1.57
2019-01-13T18:36:06.645Z,1.33
2019-01-13T18:38:37.405Z,1.40
2019-01-13T18:41:08.344Z,1.00
2019-01-13T18:43:38.990Z,1.40
2019-01-13T18:46:09.855Z,2.00
2019-01-13T18:48:40.679Z,1.40
2019-01-13T18:51:11.265Z,1.37
2019-01-13T18:53:44.964Z,2.17
2019-01-13T18:56:15.847Z,1.70
2019-01-13T18:58:51.334Z,1.23
2019-01-13T19:01:22.188Z,1.37
2019-01-13T19:03:53.453Z,1.40
2019-01-13T19:06:31.711Z,1.70
2019-01-13T19:09:16.005Z,1.33
2019-01-13T19:11:51.880Z,1.47
2019-01-13T19:14:54.861Z,1.27
2019-01-13T19:17:27.843Z,1.73
2019-01-13T19:20:30.389Z,1.67
2019-01-13T19:23:31.012Z,1.57
2019-01-13T19:26:01.637Z,1.50
2019-01-13T19:28:32.233Z,1.30
2019-01-13T19:31:02.806Z,1.53
2019-01-13T19:33:36.505Z,1.40
2019-01-13T19:36:07.283Z,1.63
2019-01-13T19:38:52.109Z,1.77
2019-01-13T19:41:23.307Z,1.60
2019-01-13T19:43:55.966Z,1.80
2019-01-13T19:46:26.629Z,1.70
2019-01-13T19:49:14.181Z,1.40
2019-01-13T19:51:58.967Z,1.60
2019-01-13T19:54:29.920Z,1.60
2019-01-13T19:57:00.931Z,1.87
2019-01-13T19:59:32.968Z,2.43
2019-01-13T20:02:09.953Z,1.10
2019-01-13T20:04:46.386Z,1.60
2019-01-13T20:07:20.505Z,0.97
2019-01-13T20:09:51.706Z,2.15
2019-01-13T20:12:22.563Z,1.23
2019-01-13T20:14:53.459Z,2.67
2019-01-13T20:17:27.870Z,1.53
2019-01-13T20:20:18.266Z,1.57
2019-01-13T20:22:52.396Z,2.13
2019-01-13T20:25:23.267Z,2.00
2019-01-13T20:28:16.330Z,1.00
2019-01-13T20:30:47.143Z,2.83
2019-01-13T20:33:22.370Z,2.00
2019-01-13T20:35:56.309Z,1.43
2019-01-13T20:38:28.940Z,1.60
2019-01-13T20:42:26.992Z,1.90
2019-01-13T20:45:16.082Z,1.60
2019-01-13T20:47:55.871Z,1.07
2019-01-13T20:54:07.933Z,1.30
2019-01-13T20:57:24.558Z,1.77
2019-01-13T20:59:57.039Z,1.23
2019-01-13T21:02:32.388Z,2.03
2019-01-13T21:05:18.355Z,1.87
2019-01-13T21:09:07.184Z,2.10
2019-01-13T21:11:42.882Z,0.77
2019-01-13T21:14:44.126Z,1.70
2019-01-13T21:51:26.081Z,1.70
2019-01-13T21:53:57.018Z,1.73
2019-01-13T21:56:31.392Z,1.70
2019-01-13T21:59:02.433Z,1.80
2019-01-13T22:01:35.670Z,1.40
2019-01-13T22:04:06.863Z,1.67
2019-01-13T22:06:37.848Z,1.63
2019-01-13T22:09:13.147Z,1.37
2019-01-13T22:11:44.150Z,1.70
2019-01-13T22:14:15.008Z,1.37
2019-01-13T22:16:48.263Z,0.97
2019-01-13T22:19:22.334Z,1.30
2019-01-13T22:22:03.527Z,1.43
2019-01-13T22:24:34.375Z,1.10
2019-01-13T22:27:05.238Z,2.07
2019-01-13T22:29:36.231Z,1.30
2019-01-13T22:37:30.978Z,1.03
2019-01-13T22:53:11.182Z,1.60
2019-01-13T22:56:38.114Z,1.93
2019-01-13T23:04:04.879Z,1.70
2019-01-13T23:06:37.518Z,1.60
2019-01-13T23:09:11.627Z,1.57
2019-01-13T23:11:51.901Z,1.93
2019-01-13T23:14:22.725Z,1.77
2019-01-13T23:16:56.356Z,1.27
2019-01-13T23:19:27.376Z,0.97
2019-01-13T23:22:00.377Z,1.60
2019-01-13T23:24:33.132Z,1.60
2019-01-13T23:27:04.074Z,1.33
2019-01-13T23:29:34.821Z,1.37
2019-01-13T23:32:08.955Z,1.20
2019-01-13T23:34:40.244Z,1.65
2019-01-13T23:37:11.059Z,1.70
2019-01-13T23:39:41.793Z,1.37
2019-01-13T23:42:12.881Z,1.47
2019-01-13T23:44:44.813Z,1.53
2019-01-13T23:47:18.263Z,1.10
2019-01-13T23:49:49.054Z,1.30
2019-01-13T23:52:19.971Z,1.57
2019-01-13T23:54:51.171Z,1.90
2019-01-13T23:57:22.082Z,1.97
2019-01-13T23:59:54.895Z,1.53
